Time;durP1;ratioP1;P1;durP2;ratioP2;P2;SDS_P1;SDS_P2;PMS_P1;PMS_P2;Temp;Humidity;BMP_temperature;BMP_pressure;BME280_temperature;BME280_humidity;BME280_pressure;Samples;Min_cycle;Max_cycle;Signal;HPM_P1;HPM_P2
2021/05/21 00:00:02;;;;;;;8.15;3.95;;;10.20;65.00;;;;;;5074551;28;20139;-65
2021/05/21 00:02:28;;;;;;;7.13;2.47;;;10.20;65.10;;;;;;5074706;28;20043;-65
2021/05/21 00:04:55;;;;;;;6.60;2.10;;;10.10;65.10;;;;;;5074690;28;20028;-68
2021/05/21 00:07:21;;;;;;;6.32;2.13;;;10.00;65.00;;;;;;5090291;28;20064;-71
2021/05/21 00:09:47;;;;;;;10.60;2.40;;;10.00;65.00;;;;;;5074629;28;20051;-64
2021/05/21 00:12:13;;;;;;;9.75;2.30;;;9.90;65.30;;;;;;5073556;28;20078;-64
2021/05/21 00:14:39;;;;;;;5.25;1.90;;;9.80;65.40;;;;;;5073368;28;20136;-71
2021/05/21 00:17:05;;;;;;;5.60;2.30;;;9.80;65.60;;;;;;5090109;28;20032;-71
2021/05/21 00:19:32;;;;;;;5.72;2.20;;;9.80;65.40;;;;;;5074693;28;20112;-71
2021/05/21 00:21:58;;;;;;;6.85;2.40;;;9.80;65.30;;;;;;5073122;28;20101;-70
2021/05/21 00:24:24;;;;;;;7.93;3.33;;;9.80;65.20;;;;;;5089818;28;20119;-64
2021/05/21 00:26:50;;;;;;;9.27;3.60;;;9.80;65.30;;;;;;5074368;28;20496;-65
2021/05/21 00:29:17;;;;;;;;;;;9.80;65.40;;;;;;5090403;28;20043;-71
2021/05/21 00:31:44;;;;;;;24.60;10.60;;;9.70;64.90;;;;;;5073235;28;19919;-66
2021/05/21 00:34:10;;;;;;;45.40;18.70;;;9.70;65.40;;;;;;5074144;28;20106;-71
2021/05/21 00:36:37;;;;;;;;;;;9.80;65.90;;;;;;5073636;28;20052;-64
2021/05/21 00:39:04;;;;;;;11.13;4.70;;;9.70;64.70;;;;;;5073971;28;19920;-72
2021/05/21 00:41:31;;;;;;;11.50;3.08;;;9.70;65.60;;;;;;5072705;28;20078;-71
2021/05/21 00:43:58;;;;;;;6.22;2.90;;;9.70;65.90;;;;;;5073799;28;20044;-71
2021/05/21 00:46:24;;;;;;;5.10;2.33;;;9.70;65.60;;;;;;5074459;28;20063;-72
2021/05/21 00:48:51;;;;;;;9.00;2.50;;;9.70;67.70;;;;;;5072501;28;20044;-65
2021/05/21 00:51:17;;;;;;;;;;;9.80;68.30;;;;;;5074352;28;20033;-64
2021/05/21 00:53:45;;;;;;;12.38;5.60;;;9.90;68.10;;;;;;5073731;28;19924;-71
2021/05/21 00:56:12;;;;;;;8.32;3.08;;;10.00;67.60;;;;;;5074161;28;20082;-71
2021/05/21 00:58:38;;;;;;;6.95;2.75;;;10.00;66.70;;;;;;5072435;28;20032;-64
2021/05/21 01:01:04;;;;;;;;;;;10.00;66.40;;;;;;5055515;28;20048;-65
2021/05/21 01:03:31;;;;;;;6.80;3.38;;;10.00;65.60;;;;;;5072134;28;19917;-70
2021/05/21 01:05:57;;;;;;;7.50;3.38;;;10.00;65.60;;;;;;5073824;28;20071;-64
2021/05/21 01:08:23;;;;;;;;;;;9.90;65.90;;;;;;5072888;28;20518;-70
2021/05/21 01:10:49;;;;;;;5.75;2.38;;;9.90;65.30;;;;;;5072284;28;19959;-64
2021/05/21 01:13:15;;;;;;;10.57;3.22;;;9.80;65.50;;;;;;5072345;28;20035;-64
2021/05/21 01:15:43;;;;;;;7.20;2.13;;;9.70;65.80;;;;;;5073525;28;20040;-71
2021/05/21 01:18:11;;;;;;;6.35;3.05;;;9.60;65.70;;;;;;5072103;28;20024;-70
2021/05/21 01:20:38;;;;;;;7.40;2.38;;;9.60;65.60;;;;;;5072011;28;20040;-64
2021/05/21 01:23:05;;;;;;;5.63;2.70;;;9.50;65.60;;;;;;5071816;28;20488;-70
2021/05/21 01:25:34;;;;;;;7.22;2.38;;;9.50;65.70;;;;;;5072044;28;20102;-71
2021/05/21 01:28:01;;;;;;;5.95;2.22;;;9.40;65.60;;;;;;5071939;28;20392;-71
2021/05/21 01:30:28;;;;;;;5.03;1.90;;;9.30;65.50;;;;;;5071973;28;20436;-64
2021/05/21 01:32:55;;;;;;;5.82;1.88;;;9.30;65.70;;;;;;5055044;28;20373;-64
2021/05/21 01:35:22;;;;;;;7.38;1.95;;;9.20;65.70;;;;;;5071971;28;20040;-64
2021/05/21 01:37:50;;;;;;;4.35;1.65;;;9.20;65.90;;;;;;5072956;28;20036;-64
2021/05/21 01:40:17;;;;;;;5.20;1.73;;;9.10;65.90;;;;;;5073239;28;20655;-71
2021/05/21 01:42:43;;;;;;;7.85;2.10;;;9.10;66.00;;;;;;5071520;28;20033;-71
2021/05/21 01:45:12;;;;;;;8.52;2.10;;;9.10;65.50;;;;;;5088389;28;20029;-71
2021/05/21 01:47:38;;;;;;;5.60;2.13;;;9.00;65.70;;;;;;5072982;28;20119;-65
2021/05/21 01:50:06;;;;;;;5.82;2.20;;;9.00;65.70;;;;;;5071588;28;20423;-69
2021/05/21 01:52:32;;;;;;;4.88;2.15;;;8.90;66.00;;;;;;5071707;28;20488;-64
2021/05/21 01:55:00;;;;;;;4.75;2.08;;;8.90;66.10;;;;;;5088268;28;20028;-71
2021/05/21 01:57:26;;;;;;;5.47;2.30;;;8.90;66.20;;;;;;5088626;28;20439;-64
2021/05/21 01:59:52;;;;;;;;;;;8.80;66.20;;;;;;5088434;28;20110;-71
2021/05/21 02:02:18;;;;;;;4.40;1.67;;;8.80;65.80;;;;;;5071556;28;19921;-71
2021/05/21 02:04:44;;;;;;;7.75;1.90;;;8.70;66.10;;;;;;5072947;28;20057;-64
2021/05/21 02:07:14;;;;;;;4.20;1.60;;;8.70;66.30;;;;;;5071539;28;20041;-64
2021/05/21 02:10:02;;;;;;;4.68;1.50;;;8.60;66.30;;;;;;5071413;28;20507;-70
2021/05/21 02:12:32;;;;;;;3.90;1.65;;;8.60;66.60;;;;;;5072314;28;20036;-71
2021/05/21 02:15:06;;;;;;;4.30;1.98;;;8.60;66.50;;;;;;5072582;28;20039;-64
2021/05/21 02:17:32;;;;;;;3.78;1.42;;;8.50;66.90;;;;;;5071400;28;20037;-71
2021/05/21 02:20:00;;;;;;;;;;;8.40;67.10;;;;;;5055025;28;20392;-64
2021/05/21 02:22:31;;;;;;;5.72;1.95;;;8.40;66.00;;;;;;5072595;28;20101;-71
2021/05/21 02:25:00;;;;;;;4.63;1.90;;;8.40;66.80;;;;;;5071230;28;20031;-71
2021/05/21 02:27:27;;;;;;;4.13;1.60;;;8.40;67.10;;;;;;5072630;28;20024;-64
2021/05/21 02:29:54;;;;;;;4.50;1.92;;;8.40;67.10;;;;;;5072371;28;20046;-64
2021/05/21 02:32:20;;;;;;;6.75;2.28;;;8.40;67.50;;;;;;5071517;28;20074;-64
2021/05/21 02:34:47;;;;;;;6.93;2.40;;;8.40;67.60;;;;;;5071041;28;20041;-71
2021/05/21 02:37:13;;;;;;;5.45;2.28;;;8.40;67.80;;;;;;5071187;28;20058;-71
2021/05/21 02:39:40;;;;;;;12.68;4.30;;;8.40;67.80;;;;;;5072427;28;20314;-71
2021/05/21 02:42:07;;;;;;;7.97;3.30;;;8.40;67.20;;;;;;5071040;28;20051;-64
2021/05/21 02:44:34;;;;;;;6.38;2.63;;;8.40;67.80;;;;;;5072341;28;20086;-64
2021/05/21 02:47:00;;;;;;;;;;;8.40;67.90;;;;;;5072725;28;20039;-65
2021/05/21 02:49:28;;;;;;;8.38;4.28;;;8.40;67.40;;;;;;5070948;28;19920;-70
2021/05/21 02:51:55;;;;;;;7.63;3.40;;;8.40;67.40;;;;;;5054425;28;20111;-71
2021/05/21 02:54:21;;;;;;;;;;;8.40;67.30;;;;;;5071403;28;20032;-71
2021/05/21 02:56:47;;;;;;;7.03;2.35;;;8.40;67.50;;;;;;5071021;28;19976;-67
2021/05/21 02:59:13;;;;;;;;;;;8.30;67.60;;;;;;5072645;28;20040;-64
2021/05/21 03:01:40;;;;;;;5.95;2.30;;;8.30;67.80;;;;;;5071027;28;19924;-64
2021/05/21 03:04:07;;;;;;;6.25;2.05;;;8.20;67.80;;;;;;5070884;28;20039;-70
2021/05/21 03:06:33;;;;;;;;;;;8.20;67.90;;;;;;5071618;28;20484;-71
2021/05/21 03:08:59;;;;;;;4.65;1.77;;;8.20;67.40;;;;;;5072020;28;19970;-71
2021/05/21 03:11:25;;;;;;;5.82;2.08;;;8.10;67.50;;;;;;5072645;28;20055;-63
2021/05/21 03:13:51;;;;;;;4.93;2.00;;;8.10;67.70;;;;;;5072037;28;20036;-64
2021/05/21 03:16:17;;;;;;;8.32;3.15;;;8.00;67.50;;;;;;5072417;28;20052;-65
2021/05/21 03:18:43;;;;;;;4.63;1.85;;;8.00;67.50;;;;;;5071971;28;20115;-64
2021/05/21 03:21:10;;;;;;;7.80;2.00;;;7.90;67.30;;;;;;5072466;28;20516;-70
2021/05/21 03:23:36;;;;;;;5.93;1.67;;;7.90;67.30;;;;;;5053934;28;20491;-64
2021/05/21 03:26:02;;;;;;;5.95;2.08;;;7.90;67.40;;;;;;5073425;28;20028;-65
2021/05/21 03:28:28;;;;;;;5.70;2.42;;;7.80;67.30;;;;;;5074325;28;20090;-64
2021/05/21 03:30:54;;;;;;;;;;;7.80;66.80;;;;;;5074789;28;20037;-71
2021/05/21 03:33:21;;;;;;;4.00;1.50;;;7.80;67.20;;;;;;5075413;28;19952;-64
2021/05/21 03:35:47;;;;;;;;;;;7.80;66.70;;;;;;5074498;28;20463;-71
2021/05/21 03:38:13;;;;;;;12.00;2.10;;;7.70;67.00;;;;;;5074120;28;19916;-64
2021/05/21 03:40:41;;;;;;;;;;;7.80;67.50;;;;;;5074696;28;20078;-71
2021/05/21 03:43:08;;;;;;;19.17;2.45;;;7.70;67.10;;;;;;5073984;28;20294;-71
2021/05/21 03:45:35;;;;;;;6.53;2.65;;;7.80;67.20;;;;;;5073927;28;20060;-64
2021/05/21 03:48:02;;;;;;;5.00;2.25;;;7.80;67.50;;;;;;5073837;28;20492;-64
2021/05/21 03:50:29;;;;;;;6.55;2.20;;;7.90;67.60;;;;;;5073855;28;20040;-71
2021/05/21 03:52:56;;;;;;;5.00;1.90;;;7.90;67.50;;;;;;5073842;28;20028;-71
2021/05/21 03:55:23;;;;;;;8.98;2.10;;;8.00;67.50;;;;;;5073802;28;20032;-64
2021/05/21 03:57:49;;;;;;;5.07;2.00;;;8.00;67.60;;;;;;5074901;28;20039;-70
2021/05/21 04:00:34;;;;;;;16.95;2.90;;;8.10;67.30;;;;;;5073870;28;20438;-71
2021/05/21 04:03:24;;;;;;;31.92;3.90;;;8.10;68.10;;;;;;5074919;28;20044;-71
2021/05/21 04:05:51;;;;;;;34.53;2.72;;;8.20;68.00;;;;;;5074945;28;20032;-70
2021/05/21 04:08:17;;;;;;;35.85;3.42;;;8.20;68.30;;;;;;5074709;28;20480;-71
2021/05/21 04:10:44;;;;;;;23.50;2.65;;;8.20;67.70;;;;;;5073453;28;20629;-71
2021/05/21 04:13:10;;;;;;;36.15;3.28;;;8.30;68.40;;;;;;5074739;28;20078;-70
2021/05/21 04:15:38;;;;;;;24.38;3.17;;;8.30;68.40;;;;;;5074915;28;20507;-64
2021/05/21 04:18:10;;;;;;;10.73;2.83;;;8.30;68.40;;;;;;5074469;28;20448;-71
2021/05/21 04:20:37;;;;;;;7.50;2.67;;;8.40;68.40;;;;;;5057046;28;20041;-71
2021/05/21 04:23:04;;;;;;;8.95;2.72;;;8.40;67.90;;;;;;5073122;28;20400;-64
2021/05/21 04:25:31;;;;;;;9.60;4.28;;;8.40;68.50;;;;;;5073071;28;20032;-71
2021/05/21 04:27:57;;;;;;;9.38;4.70;;;8.50;68.70;;;;;;5072963;28;20033;-70
2021/05/21 04:30:24;;;;;;;;;;;8.50;68.90;;;;;;5073664;28;20120;-65
2021/05/21 04:32:52;;;;;;;10.13;4.60;;;8.50;67.80;;;;;;5073019;28;19955;-66
2021/05/21 04:35:20;;;;;;;12.35;4.90;;;8.50;68.50;;;;;;5056146;28;20040;-71
2021/05/21 04:37:47;;;;;;;8.75;3.30;;;8.50;68.70;;;;;;5072938;28;20560;-71
2021/05/21 04:40:14;;;;;;;9.27;3.72;;;8.60;68.80;;;;;;5072682;28;20047;-70
2021/05/21 04:42:41;;;;;;;27.25;6.30;;;8.60;69.10;;;;;;5072801;28;20488;-65
2021/05/21 04:45:08;;;;;;;7.30;3.47;;;8.70;69.30;;;;;;5055923;28;20033;-65
2021/05/21 04:47:38;;;;;;;14.00;3.83;;;8.70;69.50;;;;;;5072744;28;20032;-71
2021/05/21 04:50:07;;;;;;;11.43;3.22;;;8.80;69.20;;;;;;5073903;28;20044;-71
2021/05/21 04:52:33;;;;;;;7.90;2.95;;;8.80;69.80;;;;;;5072702;28;20037;-70
2021/05/21 04:55:00;;;;;;;;;;;8.90;70.00;;;;;;5073031;28;20090;-69
2021/05/21 04:57:27;;;;;;;6.72;3.15;;;8.90;69.40;;;;;;5089182;28;19916;-64
2021/05/21 04:59:53;;;;;;;12.95;4.10;;;8.90;69.50;;;;;;5072108;28;20515;-64
2021/05/21 05:02:19;;;;;;;8.65;3.60;;;9.00;69.10;;;;;;5073587;28;20037;-70
2021/05/21 05:04:46;;;;;;;10.45;3.17;;;9.10;70.00;;;;;;5073362;28;20090;-64
2021/05/21 05:07:12;;;;;;;6.80;3.50;;;9.10;70.00;;;;;;5072355;28;20041;-64
2021/05/21 05:09:38;;;;;;;8.40;2.90;;;9.20;70.00;;;;;;5073253;28;20024;-70
2021/05/21 05:12:05;;;;;;;8.55;4.22;;;9.30;70.10;;;;;;5072122;28;20060;-71
2021/05/21 05:14:31;;;;;;;11.90;6.40;;;9.30;70.20;;;;;;5072000;28;20056;-71
2021/05/21 05:16:58;;;;;;;23.52;13.18;;;9.30;70.20;;;;;;5072186;28;20036;-65
2021/05/21 05:19:24;;;;;;;16.27;9.90;;;9.40;70.20;;;;;;5071988;28;20071;-71
2021/05/21 05:21:50;;;;;;;22.30;12.93;;;9.50;70.10;;;;;;5088914;28;20140;-64
2021/05/21 05:24:20;;;;;;;9.75;6.18;;;9.60;69.40;;;;;;5073191;28;20037;-64
2021/05/21 05:26:48;;;;;;;14.48;5.00;;;9.70;69.90;;;;;;5071983;28;20043;-71
2021/05/21 05:29:16;;;;;;;12.48;4.10;;;9.80;70.10;;;;;;5071975;28;20058;-71
2021/05/21 05:31:46;;;;;;;7.25;3.75;;;9.80;70.10;;;;;;5073630;28;20618;-65
2021/05/21 05:34:16;;;;;;;6.18;3.03;;;9.90;70.30;;;;;;5071944;28;20068;-71
2021/05/21 05:36:43;;;;;;;7.15;3.25;;;9.90;70.70;;;;;;5055657;28;20059;-71
2021/05/21 05:39:10;;;;;;;8.30;3.15;;;10.10;70.70;;;;;;5073036;28;20062;-63
2021/05/21 05:41:37;;;;;;;8.27;3.22;;;10.20;70.50;;;;;;5071748;28;20120;-71
2021/05/21 05:44:04;;;;;;;8.70;3.70;;;10.30;70.60;;;;;;5071559;28;20029;-71
2021/05/21 05:46:30;;;;;;;8.55;3.65;;;10.50;70.40;;;;;;5055190;28;20090;-64
2021/05/21 05:48:56;;;;;;;;;;;10.70;70.30;;;;;;5071599;28;20040;-65
2021/05/21 05:51:22;;;;;;;9.88;2.78;;;10.80;69.80;;;;;;5088654;28;20384;-64
2021/05/21 05:53:48;;;;;;;5.70;2.65;;;10.90;69.90;;;;;;5071537;28;20048;-71
2021/05/21 05:56:15;;;;;;;11.82;3.30;;;11.10;69.90;;;;;;5073226;28;20431;-64
2021/05/21 05:58:41;;;;;;;11.13;3.03;;;11.10;69.50;;;;;;5072583;28;20041;-64
2021/05/21 06:01:08;;;;;;;7.13;2.92;;;11.30;69.90;;;;;;5072730;28;20531;-65
2021/05/21 06:03:34;;;;;;;6.50;2.85;;;11.40;69.90;;;;;;5072665;28;20464;-70
2021/05/21 06:06:05;;;;;;;6.95;2.45;;;11.50;69.80;;;;;;5071299;28;20033;-70
2021/05/21 06:08:32;;;;;;;5.55;2.70;;;11.60;69.30;;;;;;5071108;28;20036;-71
2021/05/21 06:11:05;;;;;;;7.82;3.00;;;11.80;69.60;;;;;;5071087;28;20113;-71
2021/05/21 06:13:32;;;;;;;6.18;2.53;;;11.90;69.70;;;;;;5071445;28;20067;-64
2021/05/21 06:15:58;;;;;;;7.03;2.17;;;11.90;69.50;;;;;;5071393;28;20032;-71
2021/05/21 06:18:24;;;;;;;6.22;2.65;;;12.00;69.40;;;;;;5072619;28;20432;-65
2021/05/21 06:20:53;;;;;;;6.50;2.88;;;12.10;69.20;;;;;;5071427;28;20029;-66
2021/05/21 06:23:19;;;;;;;8.73;2.42;;;12.20;68.40;;;;;;5071271;28;20508;-64
2021/05/21 06:28:34;;;;;;;6.70;2.33;;;12.40;68.50;;;;;;5072465;28;20368;-64
2021/05/21 06:31:00;;;;;;;5.90;2.50;;;12.50;68.50;;;;;;5072786;28;20403;-71
2021/05/21 06:33:26;;;;;;;5.85;2.30;;;12.60;68.40;;;;;;5072570;28;20230;-70
2021/05/21 06:35:53;;;;;;;6.18;2.55;;;12.80;68.40;;;;;;5071291;28;20218;-71
2021/05/21 06:38:19;;;;;;;6.13;2.67;;;12.90;68.90;;;;;;5088006;28;20045;-64
2021/05/21 06:40:46;;;;;;;8.98;2.63;;;13.00;67.90;;;;;;5071123;28;20040;-65
2021/05/21 06:43:13;;;;;;;10.48;2.38;;;13.10;68.20;;;;;;5071033;28;20036;-70
2021/05/21 06:45:43;;;;;;;5.18;2.10;;;13.20;67.80;;;;;;5071220;28;20032;-65
2021/05/21 06:48:12;;;;;;;3.67;1.70;;;13.30;67.40;;;;;;5072329;28;20043;-65
2021/05/21 06:50:38;;;;;;;8.50;2.72;;;13.50;66.80;;;;;;5072461;28;20048;-71
2021/05/21 06:53:05;;;;;;;5.50;2.30;;;13.70;67.30;;;;;;5072533;28;20140;-65
2021/05/21 06:55:31;;;;;;;;;;;13.90;67.00;;;;;;5071563;28;20028;-71
2021/05/21 06:57:57;;;;;;;5.55;2.33;;;14.10;66.70;;;;;;5087809;28;19921;-71
2021/05/21 07:00:23;;;;;;;;;;;14.30;66.30;;;;;;5072859;28;20127;-65
2021/05/21 07:02:49;;;;;;;5.22;2.63;;;14.40;65.20;;;;;;5057873;28;19942;-71
2021/05/21 07:05:15;;;;;;;;;;;14.50;65.00;;;;;;5075336;28;20043;-71
2021/05/21 07:07:42;;;;;;;5.95;2.67;;;14.70;65.10;;;;;;5091521;28;20286;-65
2021/05/21 07:10:10;;;;;;;6.88;1.90;;;14.90;64.20;;;;;;5074518;28;20086;-71
2021/05/21 07:12:36;;;;;;;8.05;2.42;;;15.00;63.70;;;;;;5075788;28;20037;-66
2021/05/21 07:15:05;;;;;;;6.78;2.85;;;15.20;63.00;;;;;;5075627;28;20039;-65
2021/05/21 07:17:32;;;;;;;4.80;1.80;;;15.50;62.90;;;;;;5075641;28;20032;-66
2021/05/21 07:19:59;;;;;;;3.55;1.48;;;15.70;62.40;;;;;;5074068;28;20052;-66
2021/05/21 07:22:25;;;;;;;6.25;3.55;;;15.80;61.10;;;;;;5074334;28;20454;-65
2021/05/21 07:24:51;;;;;;;6.13;2.20;;;15.70;60.40;;;;;;5074139;28;20051;-71
2021/05/21 07:27:18;;;;;;;;;;;15.90;60.70;;;;;;5076117;28;20032;-71
2021/05/21 07:29:47;;;;;;;3.40;1.50;;;16.00;60.00;;;;;;5075443;28;19935;-72
2021/05/21 07:32:13;;;;;;;5.10;1.38;;;16.00;59.90;;;;;;5074142;28;20047;-71
2021/05/21 07:34:40;;;;;;;6.30;1.52;;;16.10;59.40;;;;;;5074113;28;20131;-71
2021/05/21 07:37:06;;;;;;;4.47;1.40;;;16.20;59.50;;;;;;5074080;28;20066;-72
2021/05/21 07:39:33;;;;;;;6.82;1.40;;;16.30;58.40;;;;;;5074158;28;20285;-66
2021/05/21 07:41:59;;;;;;;6.78;2.10;;;16.40;58.30;;;;;;5075108;28;20241;-70
2021/05/21 07:44:26;;;;;;;9.20;5.00;;;16.50;57.60;;;;;;5073898;28;20447;-65
2021/05/21 07:46:53;;;;;;;4.70;1.65;;;16.60;56.60;;;;;;5073902;28;20036;-66
2021/05/21 07:49:24;;;;;;;4.70;1.77;;;16.60;57.00;;;;;;5073906;28;20037;-72
2021/05/21 07:52:10;;;;;;;3.20;1.45;;;16.80;56.90;;;;;;5073884;28;20098;-72
2021/05/21 07:54:36;;;;;;;3.83;1.42;;;16.90;55.90;;;;;;5075034;28;20531;-66
2021/05/21 07:57:02;;;;;;;;;;;17.00;55.60;;;;;;5075471;28;20056;-72
2021/05/21 07:59:28;;;;;;;4.03;1.27;;;17.10;55.50;;;;;;5073629;28;20386;-72
2021/05/21 08:01:55;;;;;;;2.92;1.10;;;17.20;55.50;;;;;;5090333;28;20043;-67
2021/05/21 08:04:21;;;;;;;;;;;17.30;55.00;;;;;;5057199;28;20033;-66
2021/05/21 08:06:47;;;;;;;4.03;1.25;;;17.40;55.30;;;;;;5073543;28;19916;-66
2021/05/21 08:09:13;;;;;;;;;;;17.40;53.90;;;;;;5074062;28;20437;-72
2021/05/21 08:11:39;;;;;;;5.20;1.75;;;17.60;54.60;;;;;;5073297;28;19916;-65
2021/05/21 08:14:08;;;;;;;3.22;1.40;;;17.70;54.50;;;;;;5073478;28;20028;-68
2021/05/21 08:16:34;;;;;;;3.50;0.98;;;17.70;52.10;;;;;;5074573;28;20039;-65
2021/05/21 08:19:01;;;;;;;7.07;1.20;;;17.70;50.90;;;;;;5074419;28;20037;-65
2021/05/21 08:21:27;;;;;;;;;;;17.80;50.60;;;;;;5075485;28;20037;-72
2021/05/21 08:23:55;;;;;;;5.53;2.90;;;17.80;51.30;;;;;;5073149;28;19916;-65
2021/05/21 08:26:25;;;;;;;6.30;1.98;;;17.90;51.00;;;;;;5073094;28;20511;-66
2021/05/21 08:29:11;;;;;;;5.10;1.80;;;18.10;51.20;;;;;;5073158;28;20440;-65
2021/05/21 08:31:38;;;;;;;5.10;1.23;;;18.20;51.10;;;;;;5073359;28;20036;-65
2021/05/21 08:34:04;;;;;;;3.15;1.02;;;18.30;50.00;;;;;;5074187;28;20445;-65
2021/05/21 08:36:30;;;;;;;;;;;18.50;48.80;;;;;;5075199;28;20063;-72
2021/05/21 08:38:56;;;;;;;3.97;0.95;;;18.70;49.80;;;;;;5074095;28;19917;-72
2021/05/21 08:41:24;;;;;;;;;;;19.00;48.30;;;;;;5073568;28;20036;-66
2021/05/21 08:43:54;;;;;;;3.47;0.90;;;19.40;48.30;;;;;;5073965;28;19916;-67
2021/05/21 08:46:23;;;;;;;3.05;0.98;;;19.90;47.20;;;;;;5074359;28;20039;-72
2021/05/21 08:48:50;;;;;;;2.00;0.90;;;20.40;45.70;;;;;;5072676;28;20032;-66
2021/05/21 08:51:17;;;;;;;4.65;1.10;;;21.10;43.40;;;;;;5074331;28;20036;-73
2021/05/21 08:53:44;;;;;;;2.17;0.90;;;21.60;42.60;;;;;;5072569;28;20091;-72
2021/05/21 08:56:11;;;;;;;2.95;1.10;;;22.20;42.00;;;;;;5072697;28;20043;-65
2021/05/21 08:58:37;;;;;;;3.28;1.00;;;22.90;41.50;;;;;;5055863;28;20434;-65
2021/05/21 09:01:04;;;;;;;3.00;1.08;;;23.60;39.20;;;;;;5073639;28;20044;-64
2021/05/21 09:03:33;;;;;;;3.08;0.95;;;24.00;38.20;;;;;;5073567;28;20400;-64
2021/05/21 09:06:20;;;;;;;2.00;0.80;;;24.70;38.20;;;;;;5072440;28;20028;-71
2021/05/21 09:09:05;;;;;;;;;;;25.70;36.50;;;;;;5074129;28;20035;-70
2021/05/21 09:11:51;;;;;;;1.98;0.90;;;26.50;37.30;;;;;;5055845;28;19916;-65
2021/05/21 09:14:21;;;;;;;6.03;2.33;;;27.10;33.90;;;;;;5074082;28;20499;-71
2021/05/21 09:16:48;;;;;;;4.38;1.13;;;27.90;32.70;;;;;;5072293;28;20058;-65
2021/05/21 09:19:33;;;;;;;3.70;0.70;;;28.50;29.70;;;;;;5073373;28;20029;-65
2021/05/21 09:22:18;;;;;;;4.70;0.70;;;28.90;27.50;;;;;;5071588;28;20484;-67
2021/05/21 09:24:47;;;;;;;2.17;0.95;;;29.40;28.30;;;;;;5071975;28;20055;-65
2021/05/21 09:27:16;;;;;;;2.95;0.88;;;29.90;26.40;;;;;;5072358;28;20029;-65
2021/05/21 09:30:03;;;;;;;1.83;0.82;;;30.60;26.20;;;;;;5071992;28;20419;-71
2021/05/21 09:33:01;;;;;;;5.40;0.80;;;31.10;25.60;;;;;;5071983;28;20032;-71
2021/05/21 09:35:27;;;;;;;2.33;1.20;;;31.80;25.50;;;;;;5072032;28;20116;-71
2021/05/21 09:37:54;;;;;;;2.00;0.75;;;32.50;23.70;;;;;;5071602;28;20119;-65
2021/05/21 09:40:29;;;;;;;3.60;1.00;;;32.80;22.30;;;;;;5073097;28;20043;-65
2021/05/21 09:43:14;;;;;;;1.20;0.73;;;32.80;23.00;;;;;;5071673;28;20043;-65
2021/05/21 09:45:41;;;;;;;1.80;0.80;;;33.30;21.40;;;;;;5071813;28;20041;-65
2021/05/21 09:48:10;;;;;;;2.15;0.80;;;33.30;21.40;;;;;;5071700;28;20111;-71
2021/05/21 09:50:50;;;;;;;4.07;1.50;;;33.70;20.70;;;;;;5054936;28;20090;-72
2021/05/21 09:56:24;;;;;;;1.83;0.82;;;34.70;21.00;;;;;;5071908;28;20043;-71
2021/05/21 09:58:51;;;;;;;2.60;1.00;;;35.50;20.60;;;;;;5072730;28;20032;-71
2021/05/21 10:01:37;;;;;;;2.35;0.85;;;36.00;18.50;;;;;;5072783;28;20060;-65
2021/05/21 10:04:08;;;;;;;4.23;1.13;;;35.80;19.10;;;;;;5071414;28;20028;-71
2021/05/21 10:06:35;;;;;;;3.15;0.93;;;35.70;20.00;;;;;;5073223;28;20043;-65
2021/05/21 10:09:01;;;;;;;1.80;0.95;;;35.90;19.20;;;;;;5071375;28;20041;-66
2021/05/21 10:11:28;;;;;;;2.20;0.90;;;36.00;18.70;;;;;;5071727;28;20058;-65
2021/05/21 10:13:54;;;;;;;2.47;1.10;;;36.20;19.00;;;;;;5072557;28;20036;-65
2021/05/21 10:16:22;;;;;;;1.42;0.80;;;36.50;19.30;;;;;;5072937;28;20033;-71
2021/05/21 10:19:09;;;;;;;1.55;1.10;;;37.00;18.70;;;;;;5072521;28;20028;-65
2021/05/21 10:21:36;;;;;;;2.40;0.98;;;37.40;18.90;;;;;;5071514;28;20036;-71
2021/05/21 10:24:05;;;;;;;2.00;0.77;;;37.90;19.10;;;;;;5087880;28;20125;-66
2021/05/21 10:26:38;;;;;;;2.05;0.90;;;38.50;17.70;;;;;;5071553;28;20142;-71
2021/05/21 10:29:42;;;;;;;2.63;1.10;;;38.60;17.00;;;;;;5071269;28;20115;-65
2021/05/21 10:32:30;;;;;;;2.03;0.70;;;39.10;17.90;;;;;;5071286;28;20047;-72
2021/05/21 10:35:17;;;;;;;2.30;0.80;;;38.90;15.60;;;;;;5075073;28;20056;-71
2021/05/21 10:37:44;;;;;;;1.08;0.80;;;38.30;15.40;;;;;;5075181;28;20025;-65
2021/05/21 10:40:32;;;;;;;2.67;0.90;;;37.60;17.30;;;;;;5076458;28;20031;-72
2021/05/21 10:42:59;;;;;;;1.77;0.80;;;37.40;17.30;;;;;;5076311;28;20041;-65
2021/05/21 10:45:26;;;;;;;4.70;0.93;;;37.50;17.30;;;;;;5076475;28;20032;-71
2021/05/21 10:48:11;;;;;;;1.63;0.93;;;37.60;17.30;;;;;;5076289;28;20090;-65
2021/05/21 10:50:39;;;;;;;6.65;1.08;;;37.20;17.60;;;;;;5076490;28;20120;-72
2021/05/21 10:53:07;;;;;;;1.45;0.60;;;37.10;16.90;;;;;;5074836;28;20408;-65
2021/05/21 10:55:54;;;;;;;2.90;0.90;;;37.60;16.40;;;;;;5074956;28;20035;-72
2021/05/21 11:01:26;;;;;;;4.28;0.90;;;39.10;16.60;;;;;;5074940;28;20121;-65
2021/05/21 11:04:13;;;;;;;1.38;0.65;;;39.80;15.30;;;;;;5076098;28;20033;-66
2021/05/21 11:07:00;;;;;;;1.15;0.70;;;40.10;15.80;;;;;;5076659;28;20537;-72
2021/05/21 11:09:31;;;;;;;1.80;0.70;;;39.00;15.20;;;;;;5074570;28;20032;-65
2021/05/21 11:12:16;;;;;;;1.48;0.80;;;38.90;15.80;;;;;;5074580;28;20042;-72
2021/05/21 11:14:45;;;;;;;1.37;0.70;;;39.10;15.10;;;;;;5075724;28;20032;-66
2021/05/21 11:17:30;;;;;;;1.25;0.70;;;38.70;15.20;;;;;;5075658;28;20504;-66
2021/05/21 11:19:59;;;;;;;0.70;0.60;;;37.70;15.70;;;;;;5075674;28;20102;-71
2021/05/21 11:22:44;;;;;;;3.25;0.90;;;36.80;16.20;;;;;;5074386;28;20033;-72
2021/05/21 11:25:29;;;;;;;0.57;0.57;;;36.10;17.40;;;;;;5091136;28;20425;-65
2021/05/21 11:27:55;;;;;;;5.25;0.70;;;35.70;17.20;;;;;;5074247;28;20056;-65
2021/05/21 11:30:22;;;;;;;0.77;0.52;;;35.50;17.80;;;;;;5074213;28;20037;-65
2021/05/21 11:32:49;;;;;;;2.72;0.60;;;35.30;17.80;;;;;;5075019;28;20097;-72
2021/05/21 11:35:15;;;;;;;1.83;0.70;;;35.20;17.60;;;;;;5068412;28;20028;-72
2021/05/21 11:37:42;;;;;;;1.52;0.60;;;35.30;17.10;;;;;;5071124;28;20028;-65
2021/05/21 11:40:10;;;;;;;1.73;0.70;;;35.40;16.30;;;;;;5074655;28;20037;-65
2021/05/21 11:42:36;;;;;;;1.35;0.50;;;35.60;17.60;;;;;;5056834;28;20123;-65
2021/05/21 11:45:06;;;;;;;0.68;0.50;;;36.50;14.10;;;;;;5074571;28;20115;-65
2021/05/21 11:47:37;;;;;;;4.28;1.05;;;36.60;14.00;;;;;;5073737;28;20078;-65
2021/05/21 11:50:08;;;;;;;0.40;0.40;;;36.80;12.90;;;;;;5057626;28;20033;-72
2021/05/21 11:52:34;;;;;;;2.47;0.60;;;36.80;13.00;;;;;;5073814;28;20029;-71
2021/05/21 11:55:00;;;;;;;0.70;0.52;;;36.90;13.20;;;;;;5073816;28;20044;-72
2021/05/21 11:57:27;;;;;;;0.90;0.50;;;36.90;12.00;;;;;;5073760;28;20029;-72
2021/05/21 12:00:12;;;;;;;1.45;0.50;;;37.00;12.40;;;;;;5074561;28;20484;-72
2021/05/21 12:02:39;;;;;;;0.98;0.82;;;37.10;11.60;;;;;;5073665;28;20032;-71
2021/05/21 12:05:08;;;;;;;0.68;0.50;;;37.10;12.50;;;;;;5075098;28;20063;-65
2021/05/21 12:07:37;;;;;;;1.35;0.57;;;37.40;12.90;;;;;;5073525;28;20040;-66
2021/05/21 12:10:06;;;;;;;0.50;0.40;;;37.70;12.00;;;;;;5073485;28;20513;-65
2021/05/21 12:12:35;;;;;;;0.85;0.75;;;37.50;11.40;;;;;;5056816;28;20036;-65
2021/05/21 12:15:14;;;;;;;224.15;62.25;;;37.50;11.70;;;;;;5073369;28;20123;-65
2021/05/21 12:17:59;;;;;;;0.73;0.50;;;37.80;11.50;;;;;;5073710;28;20489;-64
2021/05/21 12:20:25;;;;;;;1.08;0.50;;;38.70;12.60;;;;;;5073363;28;20032;-65
2021/05/21 12:23:10;;;;;;;31.38;2.05;;;38.40;12.20;;;;;;5074390;28;20464;-65
2021/05/21 12:25:37;;;;;;;1.98;0.52;;;36.20;12.10;;;;;;5073266;28;20020;-65
2021/05/21 12:28:05;;;;;;;2.05;0.82;;;35.40;12.70;;;;;;5074305;28;20033;-65
2021/05/21 12:30:32;;;;;;;1.40;0.80;;;35.10;13.30;;;;;;5073190;28;20139;-65
2021/05/21 12:33:01;;;;;;;3.75;0.77;;;34.10;14.00;;;;;;5074216;28;20112;-65
2021/05/21 12:35:41;;;;;;;1.48;0.60;;;33.50;14.70;;;;;;5073059;28;20492;-71
2021/05/21 12:38:10;;;;;;;1.90;0.50;;;32.70;15.60;;;;;;5072973;28;20037;-65
2021/05/21 12:41:08;;;;;;;3.10;0.98;;;31.80;15.70;;;;;;5072922;28;20079;-64
2021/05/21 12:43:34;;;;;;;1.05;0.57;;;31.10;16.60;;;;;;5072859;28;20058;-72
2021/05/21 12:46:19;;;;;;;0.77;0.40;;;30.60;16.70;;;;;;5072606;28;20033;-64
2021/05/21 12:48:48;;;;;;;1.17;0.50;;;30.60;17.70;;;;;;5069029;28;20060;-71
2021/05/21 12:51:32;;;;;;;2.17;0.45;;;31.20;17.10;;;;;;5072818;28;20064;-65
2021/05/21 12:54:37;;;;;;;1.45;0.60;;;31.40;16.70;;;;;;5089429;28;20037;-71
2021/05/21 12:57:25;;;;;;;0.88;0.50;;;31.30;18.00;;;;;;5072519;28;20064;-70
2021/05/21 13:00:17;;;;;;;0.40;0.40;;;31.40;17.50;;;;;;5072289;28;20080;-65
2021/05/21 13:02:51;;;;;;;1.50;0.60;;;32.20;18.70;;;;;;5072365;28;20512;-71
2021/05/21 13:05:18;;;;;;;0.65;0.40;;;33.10;18.40;;;;;;5055787;28;20040;-65
2021/05/21 13:08:05;;;;;;;0.52;0.40;;;33.40;15.60;;;;;;5072285;28;20055;-71
2021/05/21 13:10:39;;;;;;;1.40;0.40;;;32.60;16.10;;;;;;5073755;28;20029;-71
2021/05/21 13:13:06;;;;;;;1.15;0.50;;;32.50;16.20;;;;;;5072592;28;20111;-64
2021/05/21 13:15:38;;;;;;;3.25;0.43;;;32.50;16.70;;;;;;5072318;28;20029;-65
2021/05/21 13:18:05;;;;;;;0.82;0.55;;;31.70;16.10;;;;;;5072209;28;20039;-64